sensor_id;sensor_type;location;lat;lon;timestamp;temperature;humidity
37786;DHT22;23625;48.784;9.336;2024-02-21T00:00:35;5.70;99.90
37786;DHT22;23625;48.784;9.336;2024-02-21T00:03:03;5.80;99.90
37786;DHT22;23625;48.784;9.336;2024-02-21T00:05:30;5.80;99.90
37786;DHT22;23625;48.784;9.336;2024-02-21T00:07:57;5.80;99.90
37786;DHT22;23625;48.784;9.336;2024-02-21T00:10:23;5.80;99.90
37786;DHT22;23625;48.784;9.336;2024-02-21T00:12:48;5.80;99.90
37786;DHT22;23625;48.784;9.336;2024-02-21T00:15:14;5.80;99.90
37786;DHT22;23625;48.784;9.336;2024-02-21T00:17:40;5.80;99.90
37786;DHT22;23625;48.784;9.336;2024-02-21T00:20:06;5.80;99.90
37786;DHT22;23625;48.784;9.336;2024-02-21T00:22:32;5.80;99.90
37786;DHT22;23625;48.784;9.336;2024-02-21T00:24:59;5.80;99.90
37786;DHT22;23625;48.784;9.336;2024-02-21T00:27:24;5.70;99.90
37786;DHT22;23625;48.784;9.336;2024-02-21T00:29:50;5.70;99.90
37786;DHT22;23625;48.784;9.336;2024-02-21T00:32:15;5.70;99.90
37786;DHT22;23625;48.784;9.336;2024-02-21T00:34:41;5.70;99.90
37786;DHT22;23625;48.784;9.336;2024-02-21T00:37:06;5.70;99.90
37786;DHT22;23625;48.784;9.336;2024-02-21T00:39:32;5.70;99.90
37786;DHT22;23625;48.784;9.336;2024-02-21T00:41:58;5.70;99.90
37786;DHT22;23625;48.784;9.336;2024-02-21T00:44:23;5.80;99.90
37786;DHT22;23625;48.784;9.336;2024-02-21T00:46:49;5.80;99.90
37786;DHT22;23625;48.784;9.336;2024-02-21T00:49:15;5.90;99.90
37786;DHT22;23625;48.784;9.336;2024-02-21T00:51:40;5.80;99.90
37786;DHT22;23625;48.784;9.336;2024-02-21T00:54:06;5.90;99.90
37786;DHT22;23625;48.784;9.336;2024-02-21T00:56:31;5.90;99.90
37786;DHT22;23625;48.784;9.336;2024-02-21T00:58:57;5.80;99.90
37786;DHT22;23625;48.784;9.336;2024-02-21T01:01:24;5.80;99.90
37786;DHT22;23625;48.784;9.336;2024-02-21T01:03:50;5.80;99.90
37786;DHT22;23625;48.784;9.336;2024-02-21T01:06:19;5.80;99.90
37786;DHT22;23625;48.784;9.336;2024-02-21T01:08:45;5.80;99.90
37786;DHT22;23625;48.784;9.336;2024-02-21T01:11:11;5.80;99.90
37786;DHT22;23625;48.784;9.336;2024-02-21T01:13:36;5.80;99.90
37786;DHT22;23625;48.784;9.336;2024-02-21T01:16:02;5.90;99.90
37786;DHT22;23625;48.784;9.336;2024-02-21T01:18:27;5.80;99.90
37786;DHT22;23625;48.784;9.336;2024-02-21T01:20:53;5.90;99.90
37786;DHT22;23625;48.784;9.336;2024-02-21T01:23:18;5.90;99.90
37786;DHT22;23625;48.784;9.336;2024-02-21T01:25:44;5.90;99.90
37786;DHT22;23625;48.784;9.336;2024-02-21T01:28:10;5.90;99.90
37786;DHT22;23625;48.784;9.336;2024-02-21T01:30:35;5.90;99.90
37786;DHT22;23625;48.784;9.336;2024-02-21T01:33:01;5.90;99.90
37786;DHT22;23625;48.784;9.336;2024-02-21T01:35:26;5.90;99.90
37786;DHT22;23625;48.784;9.336;2024-02-21T01:37:52;6.00;99.90
37786;DHT22;23625;48.784;9.336;2024-02-21T01:40:17;6.00;99.90
37786;DHT22;23625;48.784;9.336;2024-02-21T01:42:43;6.00;99.90
37786;DHT22;23625;48.784;9.336;2024-02-21T01:45:09;6.10;99.90
37786;DHT22;23625;48.784;9.336;2024-02-21T01:47:35;6.10;99.90
37786;DHT22;23625;48.784;9.336;2024-02-21T01:50:02;6.10;99.90
37786;DHT22;23625;48.784;9.336;2024-02-21T01:52:29;6.20;99.90
37786;DHT22;23625;48.784;9.336;2024-02-21T01:54:55;6.20;99.90
37786;DHT22;23625;48.784;9.336;2024-02-21T01:57:20;6.20;99.90
37786;DHT22;23625;48.784;9.336;2024-02-21T01:59:46;6.20;99.90
37786;DHT22;23625;48.784;9.336;2024-02-21T02:02:12;6.20;99.90
37786;DHT22;23625;48.784;9.336;2024-02-21T02:04:38;6.20;99.90
37786;DHT22;23625;48.784;9.336;2024-02-21T02:07:06;6.20;99.90
37786;DHT22;23625;48.784;9.336;2024-02-21T02:09:32;6.20;99.90
37786;DHT22;23625;48.784;9.336;2024-02-21T02:11:58;6.10;99.90
37786;DHT22;23625;48.784;9.336;2024-02-21T02:14:25;6.10;99.90
37786;DHT22;23625;48.784;9.336;2024-02-21T02:16:50;6.10;99.90
37786;DHT22;23625;48.784;9.336;2024-02-21T02:19:16;6.10;99.90
37786;DHT22;23625;48.784;9.336;2024-02-21T02:21:46;6.10;99.90
37786;DHT22;23625;48.784;9.336;2024-02-21T02:24:13;6.10;99.90
37786;DHT22;23625;48.784;9.336;2024-02-21T02:26:39;6.10;99.90
37786;DHT22;23625;48.784;9.336;2024-02-21T02:29:05;6.10;99.90
37786;DHT22;23625;48.784;9.336;2024-02-21T02:31:30;6.10;99.90
37786;DHT22;23625;48.784;9.336;2024-02-21T02:33:56;6.20;99.90
37786;DHT22;23625;48.784;9.336;2024-02-21T02:36:22;6.10;99.90
37786;DHT22;23625;48.784;9.336;2024-02-21T02:38:47;6.10;99.90
37786;DHT22;23625;48.784;9.336;2024-02-21T02:41:13;6.10;99.90
37786;DHT22;23625;48.784;9.336;2024-02-21T02:43:38;6.20;99.90
37786;DHT22;23625;48.784;9.336;2024-02-21T02:46:04;6.20;99.90
37786;DHT22;23625;48.784;9.336;2024-02-21T02:48:29;6.20;99.90
37786;DHT22;23625;48.784;9.336;2024-02-21T02:50:55;6.20;99.90
37786;DHT22;23625;48.784;9.336;2024-02-21T02:53:21;6.20;99.90
37786;DHT22;23625;48.784;9.336;2024-02-21T02:55:46;6.30;99.90
37786;DHT22;23625;48.784;9.336;2024-02-21T02:58:12;6.30;99.90
37786;DHT22;23625;48.784;9.336;2024-02-21T03:00:37;6.30;99.90
37786;DHT22;23625;48.784;9.336;2024-02-21T03:03:05;6.30;99.90
37786;DHT22;23625;48.784;9.336;2024-02-21T03:05:30;6.30;99.90
37786;DHT22;23625;48.784;9.336;2024-02-21T03:07:56;6.30;99.90
37786;DHT22;23625;48.784;9.336;2024-02-21T03:10:21;6.30;99.90
37786;DHT22;23625;48.784;9.336;2024-02-21T03:12:47;6.40;99.90
37786;DHT22;23625;48.784;9.336;2024-02-21T03:15:14;6.30;99.90
37786;DHT22;23625;48.784;9.336;2024-02-21T03:17:40;6.40;99.90
37786;DHT22;23625;48.784;9.336;2024-02-21T03:20:06;6.40;99.90
37786;DHT22;23625;48.784;9.336;2024-02-21T03:22:35;6.40;99.90
37786;DHT22;23625;48.784;9.336;2024-02-21T03:25:01;6.40;99.90
37786;DHT22;23625;48.784;9.336;2024-02-21T03:27:26;6.40;99.90
37786;DHT22;23625;48.784;9.336;2024-02-21T03:29:52;6.50;99.90
37786;DHT22;23625;48.784;9.336;2024-02-21T03:32:17;6.50;99.90
37786;DHT22;23625;48.784;9.336;2024-02-21T03:34:43;6.70;99.90
37786;DHT22;23625;48.784;9.336;2024-02-21T03:37:09;6.80;99.90
37786;DHT22;23625;48.784;9.336;2024-02-21T03:39:34;6.80;99.90
37786;DHT22;23625;48.784;9.336;2024-02-21T03:42:00;6.70;99.90
37786;DHT22;23625;48.784;9.336;2024-02-21T03:44:33;6.70;99.90
37786;DHT22;23625;48.784;9.336;2024-02-21T03:46:59;6.60;99.90
37786;DHT22;23625;48.784;9.336;2024-02-21T03:49:25;6.60;99.90
37786;DHT22;23625;48.784;9.336;2024-02-21T03:51:51;6.50;99.90
37786;DHT22;23625;48.784;9.336;2024-02-21T03:54:16;6.50;99.90
37786;DHT22;23625;48.784;9.336;2024-02-21T03:56:42;6.40;99.90
37786;DHT22;23625;48.784;9.336;2024-02-21T03:59:08;6.40;99.90
37786;DHT22;23625;48.784;9.336;2024-02-21T04:01:36;6.40;99.90
37786;DHT22;23625;48.784;9.336;2024-02-21T04:04:02;6.40;99.90
37786;DHT22;23625;48.784;9.336;2024-02-21T04:06:28;6.40;99.90
37786;DHT22;23625;48.784;9.336;2024-02-21T04:08:53;6.30;99.90
37786;DHT22;23625;48.784;9.336;2024-02-21T04:11:19;6.30;99.90
37786;DHT22;23625;48.784;9.336;2024-02-21T04:13:45;6.30;99.90
37786;DHT22;23625;48.784;9.336;2024-02-21T04:16:14;6.20;99.90
37786;DHT22;23625;48.784;9.336;2024-02-21T04:18:40;6.30;99.90
37786;DHT22;23625;48.784;9.336;2024-02-21T04:21:05;6.30;99.90
37786;DHT22;23625;48.784;9.336;2024-02-21T04:23:31;6.30;99.90
37786;DHT22;23625;48.784;9.336;2024-02-21T04:25:56;6.30;99.90
37786;DHT22;23625;48.784;9.336;2024-02-21T04:28:22;6.30;99.90
37786;DHT22;23625;48.784;9.336;2024-02-21T04:30:47;6.30;99.90
37786;DHT22;23625;48.784;9.336;2024-02-21T04:33:13;6.30;99.90
37786;DHT22;23625;48.784;9.336;2024-02-21T04:35:39;6.20;99.90
37786;DHT22;23625;48.784;9.336;2024-02-21T04:38:05;6.20;99.90
37786;DHT22;23625;48.784;9.336;2024-02-21T04:40:30;6.20;99.90
37786;DHT22;23625;48.784;9.336;2024-02-21T04:42:57;6.20;99.90
37786;DHT22;23625;48.784;9.336;2024-02-21T04:45:22;6.20;99.90
37786;DHT22;23625;48.784;9.336;2024-02-21T04:47:48;6.10;99.90
37786;DHT22;23625;48.784;9.336;2024-02-21T04:50:14;6.10;99.90
37786;DHT22;23625;48.784;9.336;2024-02-21T04:52:39;6.00;99.90
37786;DHT22;23625;48.784;9.336;2024-02-21T04:55:05;5.90;99.90
37786;DHT22;23625;48.784;9.336;2024-02-21T04:57:31;5.80;99.90
37786;DHT22;23625;48.784;9.336;2024-02-21T04:59:57;5.80;99.90
37786;DHT22;23625;48.784;9.336;2024-02-21T05:02:22;5.70;99.90
37786;DHT22;23625;48.784;9.336;2024-02-21T05:04:49;5.60;99.90
37786;DHT22;23625;48.784;9.336;2024-02-21T05:07:15;5.50;99.90
37786;DHT22;23625;48.784;9.336;2024-02-21T05:09:42;5.50;99.90
37786;DHT22;23625;48.784;9.336;2024-02-21T05:12:08;5.40;99.90
37786;DHT22;23625;48.784;9.336;2024-02-21T05:14:34;5.30;99.90
37786;DHT22;23625;48.784;9.336;2024-02-21T05:16:59;5.20;99.90
37786;DHT22;23625;48.784;9.336;2024-02-21T05:19:25;5.10;99.90
37786;DHT22;23625;48.784;9.336;2024-02-21T05:21:50;5.00;99.90
37786;DHT22;23625;48.784;9.336;2024-02-21T05:24:16;4.90;99.90
37786;DHT22;23625;48.784;9.336;2024-02-21T05:26:41;4.90;99.90
37786;DHT22;23625;48.784;9.336;2024-02-21T05:29:07;4.80;99.90
37786;DHT22;23625;48.784;9.336;2024-02-21T05:34:17;4.80;99.90
37786;DHT22;23625;48.784;9.336;2024-02-21T05:36:42;4.70;99.90
37786;DHT22;23625;48.784;9.336;2024-02-21T05:39:08;4.70;99.90
37786;DHT22;23625;48.784;9.336;2024-02-21T05:41:33;4.70;99.90
37786;DHT22;23625;48.784;9.336;2024-02-21T05:43:59;4.70;99.90
37786;DHT22;23625;48.784;9.336;2024-02-21T05:46:24;4.60;99.90
37786;DHT22;23625;48.784;9.336;2024-02-21T05:48:50;4.60;99.90
37786;DHT22;23625;48.784;9.336;2024-02-21T05:51:16;4.70;99.90
37786;DHT22;23625;48.784;9.336;2024-02-21T05:53:41;4.70;99.90
37786;DHT22;23625;48.784;9.336;2024-02-21T05:56:11;4.60;99.90
37786;DHT22;23625;48.784;9.336;2024-02-21T05:58:37;4.60;99.90
37786;DHT22;23625;48.784;9.336;2024-02-21T06:01:03;4.60;99.90
37786;DHT22;23625;48.784;9.336;2024-02-21T06:03:29;4.60;99.90
37786;DHT22;23625;48.784;9.336;2024-02-21T06:05:55;4.60;99.90
37786;DHT22;23625;48.784;9.336;2024-02-21T06:08:20;4.60;99.90
37786;DHT22;23625;48.784;9.336;2024-02-21T06:10:46;4.60;99.90
37786;DHT22;23625;48.784;9.336;2024-02-21T06:13:13;4.60;99.90
37786;DHT22;23625;48.784;9.336;2024-02-21T06:15:39;4.70;99.90
37786;DHT22;23625;48.784;9.336;2024-02-21T06:18:05;4.70;99.90
37786;DHT22;23625;48.784;9.336;2024-02-21T06:20:30;4.80;99.90
37786;DHT22;23625;48.784;9.336;2024-02-21T06:22:57;4.80;99.90
37786;DHT22;23625;48.784;9.336;2024-02-21T06:25:23;4.70;99.90
37786;DHT22;23625;48.784;9.336;2024-02-21T06:27:48;4.80;99.90
37786;DHT22;23625;48.784;9.336;2024-02-21T06:30:14;4.70;99.90
37786;DHT22;23625;48.784;9.336;2024-02-21T06:32:39;4.70;99.90
37786;DHT22;23625;48.784;9.336;2024-02-21T06:35:05;4.70;99.90
37786;DHT22;23625;48.784;9.336;2024-02-21T06:37:31;4.60;99.90
37786;DHT22;23625;48.784;9.336;2024-02-21T06:39:57;4.60;99.90
37786;DHT22;23625;48.784;9.336;2024-02-21T06:42:24;4.50;99.90
37786;DHT22;23625;48.784;9.336;2024-02-21T06:44:50;4.50;99.90
37786;DHT22;23625;48.784;9.336;2024-02-21T06:47:16;4.50;99.90
37786;DHT22;23625;48.784;9.336;2024-02-21T06:49:41;4.50;99.90
37786;DHT22;23625;48.784;9.336;2024-02-21T06:52:07;4.50;99.90
37786;DHT22;23625;48.784;9.336;2024-02-21T06:54:33;4.50;99.90
37786;DHT22;23625;48.784;9.336;2024-02-21T06:56:58;4.50;99.90
37786;DHT22;23625;48.784;9.336;2024-02-21T06:59:24;4.50;99.90
37786;DHT22;23625;48.784;9.336;2024-02-21T07:01:52;4.50;99.90
37786;DHT22;23625;48.784;9.336;2024-02-21T07:04:18;4.50;99.90
37786;DHT22;23625;48.784;9.336;2024-02-21T07:06:44;4.60;99.90
37786;DHT22;23625;48.784;9.336;2024-02-21T07:09:09;4.70;99.90
37786;DHT22;23625;48.784;9.336;2024-02-21T07:11:35;4.80;99.90
37786;DHT22;23625;48.784;9.336;2024-02-21T07:14:00;4.90;99.90
37786;DHT22;23625;48.784;9.336;2024-02-21T07:16:26;5.00;99.90
37786;DHT22;23625;48.784;9.336;2024-02-21T07:18:52;5.10;99.90
37786;DHT22;23625;48.784;9.336;2024-02-21T07:21:17;5.20;99.90
37786;DHT22;23625;48.784;9.336;2024-02-21T07:23:43;5.30;99.90
37786;DHT22;23625;48.784;9.336;2024-02-21T07:26:08;5.40;99.90
37786;DHT22;23625;48.784;9.336;2024-02-21T07:28:34;5.50;99.90
37786;DHT22;23625;48.784;9.336;2024-02-21T07:31:00;5.60;99.90
37786;DHT22;23625;48.784;9.336;2024-02-21T07:33:25;5.60;99.90
37786;DHT22;23625;48.784;9.336;2024-02-21T07:35:51;5.70;99.90
37786;DHT22;23625;48.784;9.336;2024-02-21T07:38:17;5.80;99.90
37786;DHT22;23625;48.784;9.336;2024-02-21T07:40:46;5.90;99.90
37786;DHT22;23625;48.784;9.336;2024-02-21T07:43:12;6.00;99.90
37786;DHT22;23625;48.784;9.336;2024-02-21T07:45:38;6.00;99.90
37786;DHT22;23625;48.784;9.336;2024-02-21T07:48:05;6.20;99.90
37786;DHT22;23625;48.784;9.336;2024-02-21T07:50:31;6.30;99.90
37786;DHT22;23625;48.784;9.336;2024-02-21T07:52:57;6.40;99.90
37786;DHT22;23625;48.784;9.336;2024-02-21T07:55:23;6.50;99.90
37786;DHT22;23625;48.784;9.336;2024-02-21T07:57:48;6.60;99.90
37786;DHT22;23625;48.784;9.336;2024-02-21T08:00:15;6.80;99.90
37786;DHT22;23625;48.784;9.336;2024-02-21T08:02:45;6.90;99.90
37786;DHT22;23625;48.784;9.336;2024-02-21T08:05:11;7.00;99.90
37786;DHT22;23625;48.784;9.336;2024-02-21T08:07:38;7.20;99.90
37786;DHT22;23625;48.784;9.336;2024-02-21T08:10:04;7.50;99.90
37786;DHT22;23625;48.784;9.336;2024-02-21T08:12:30;7.50;99.90
37786;DHT22;23625;48.784;9.336;2024-02-21T08:14:55;7.60;99.90
37786;DHT22;23625;48.784;9.336;2024-02-21T08:17:21;7.70;99.90
37786;DHT22;23625;48.784;9.336;2024-02-21T08:19:46;7.70;99.90
37786;DHT22;23625;48.784;9.336;2024-02-21T08:22:14;7.80;99.90
37786;DHT22;23625;48.784;9.336;2024-02-21T08:24:40;7.90;99.90
37786;DHT22;23625;48.784;9.336;2024-02-21T08:27:05;8.00;98.30
37786;DHT22;23625;48.784;9.336;2024-02-21T08:29:31;8.10;98.30
37786;DHT22;23625;48.784;9.336;2024-02-21T08:31:57;8.10;97.20
37786;DHT22;23625;48.784;9.336;2024-02-21T08:34:22;8.20;97.10
37786;DHT22;23625;48.784;9.336;2024-02-21T08:36:48;8.20;97.10
37786;DHT22;23625;48.784;9.336;2024-02-21T08:39:13;8.30;96.60
37786;DHT22;23625;48.784;9.336;2024-02-21T08:41:42;8.30;97.40
37786;DHT22;23625;48.784;9.336;2024-02-21T08:44:07;8.40;98.60
37786;DHT22;23625;48.784;9.336;2024-02-21T08:46:33;8.40;97.70
37786;DHT22;23625;48.784;9.336;2024-02-21T08:48:59;8.50;95.30
37786;DHT22;23625;48.784;9.336;2024-02-21T08:51:25;8.50;95.80
37786;DHT22;23625;48.784;9.336;2024-02-21T08:53:51;8.50;94.50
37786;DHT22;23625;48.784;9.336;2024-02-21T08:56:19;8.50;94.50
37786;DHT22;23625;48.784;9.336;2024-02-21T08:58:44;8.50;96.40
37786;DHT22;23625;48.784;9.336;2024-02-21T09:01:10;8.60;96.20
37786;DHT22;23625;48.784;9.336;2024-02-21T09:03:36;8.60;94.90
37786;DHT22;23625;48.784;9.336;2024-02-21T09:06:03;8.50;94.70
37786;DHT22;23625;48.784;9.336;2024-02-21T09:08:29;8.70;97.10
37786;DHT22;23625;48.784;9.336;2024-02-21T09:10:55;8.80;94.90
37786;DHT22;23625;48.784;9.336;2024-02-21T09:13:21;8.80;94.50
37786;DHT22;23625;48.784;9.336;2024-02-21T09:15:47;8.90;95.30
37786;DHT22;23625;48.784;9.336;2024-02-21T09:18:14;8.90;92.50
37786;DHT22;23625;48.784;9.336;2024-02-21T09:20:40;8.90;93.80
37786;DHT22;23625;48.784;9.336;2024-02-21T09:23:05;9.00;92.90
37786;DHT22;23625;48.784;9.336;2024-02-21T09:25:31;9.00;93.00
37786;DHT22;23625;48.784;9.336;2024-02-21T09:27:57;9.00;92.50
37786;DHT22;23625;48.784;9.336;2024-02-21T09:30:23;9.20;91.30
37786;DHT22;23625;48.784;9.336;2024-02-21T09:32:49;9.20;91.40
37786;DHT22;23625;48.784;9.336;2024-02-21T09:35:15;9.20;90.60
37786;DHT22;23625;48.784;9.336;2024-02-21T09:37:41;9.30;91.80
37786;DHT22;23625;48.784;9.336;2024-02-21T09:40:07;9.30;91.10
37786;DHT22;23625;48.784;9.336;2024-02-21T09:42:39;9.50;89.80
37786;DHT22;23625;48.784;9.336;2024-02-21T09:45:08;9.50;87.80
37786;DHT22;23625;48.784;9.336;2024-02-21T09:47:43;9.60;88.40
37786;DHT22;23625;48.784;9.336;2024-02-21T09:50:14;9.60;90.20
37786;DHT22;23625;48.784;9.336;2024-02-21T09:52:40;9.70;86.20
37786;DHT22;23625;48.784;9.336;2024-02-21T09:55:07;9.70;83.80
37786;DHT22;23625;48.784;9.336;2024-02-21T09:57:36;9.80;85.70
37786;DHT22;23625;48.784;9.336;2024-02-21T10:00:04;9.90;84.60
37786;DHT22;23625;48.784;9.336;2024-02-21T10:02:33;10.00;86.80
37786;DHT22;23625;48.784;9.336;2024-02-21T10:04:58;10.20;83.10
37786;DHT22;23625;48.784;9.336;2024-02-21T10:07:24;10.20;85.10
37786;DHT22;23625;48.784;9.336;2024-02-21T10:10:01;10.10;82.40
37786;DHT22;23625;48.784;9.336;2024-02-21T10:12:26;10.30;83.50
37786;DHT22;23625;48.784;9.336;2024-02-21T10:15:12;10.40;83.70
37786;DHT22;23625;48.784;9.336;2024-02-21T10:17:38;10.70;82.50
37786;DHT22;23625;48.784;9.336;2024-02-21T10:20:09;10.70;81.00
37786;DHT22;23625;48.784;9.336;2024-02-21T10:22:35;10.90;81.60
37786;DHT22;23625;48.784;9.336;2024-02-21T10:25:11;11.10;79.10
37786;DHT22;23625;48.784;9.336;2024-02-21T10:27:41;11.20;77.90
37786;DHT22;23625;48.784;9.336;2024-02-21T10:30:13;11.30;77.80
37786;DHT22;23625;48.784;9.336;2024-02-21T10:32:53;11.60;78.10
37786;DHT22;23625;48.784;9.336;2024-02-21T10:35:32;11.80;76.20
37786;DHT22;23625;48.784;9.336;2024-02-21T10:37:58;12.00;75.00
37786;DHT22;23625;48.784;9.336;2024-02-21T10:40:29;12.20;72.50
37786;DHT22;23625;48.784;9.336;2024-02-21T10:43:00;12.10;72.20
37786;DHT22;23625;48.784;9.336;2024-02-21T10:45:36;12.20;71.60
37786;DHT22;23625;48.784;9.336;2024-02-21T10:51:22;12.20;70.70
37786;DHT22;23625;48.784;9.336;2024-02-21T10:53:41;12.00;68.50
37786;DHT22;23625;48.784;9.336;2024-02-21T10:56:38;12.00;68.50
37786;DHT22;23625;48.784;9.336;2024-02-21T10:59:06;12.10;68.80
37786;DHT22;23625;48.784;9.336;2024-02-21T11:01:32;12.30;68.50
37786;DHT22;23625;48.784;9.336;2024-02-21T11:04:01;12.30;66.70
37786;DHT22;23625;48.784;9.336;2024-02-21T11:06:28;12.40;64.20
37786;DHT22;23625;48.784;9.336;2024-02-21T11:11:27;12.30;65.30
37786;DHT22;23625;48.784;9.336;2024-02-21T11:13:53;12.50;64.30
37786;DHT22;23625;48.784;9.336;2024-02-21T11:16:35;12.40;64.30
37786;DHT22;23625;48.784;9.336;2024-02-21T11:19:09;12.30;63.30
37786;DHT22;23625;48.784;9.336;2024-02-21T11:21:37;12.30;64.80
37786;DHT22;23625;48.784;9.336;2024-02-21T11:24:04;12.40;64.30
37786;DHT22;23625;48.784;9.336;2024-02-21T11:26:30;12.50;63.70
37786;DHT22;23625;48.784;9.336;2024-02-21T11:29:02;12.40;63.30
37786;DHT22;23625;48.784;9.336;2024-02-21T11:31:39;12.30;64.10
37786;DHT22;23625;48.784;9.336;2024-02-21T11:34:09;12.30;63.40
37786;DHT22;23625;48.784;9.336;2024-02-21T11:36:34;12.30;63.20
37786;DHT22;23625;48.784;9.336;2024-02-21T11:39:04;12.40;63.80
37786;DHT22;23625;48.784;9.336;2024-02-21T11:41:30;12.50;62.90
37786;DHT22;23625;48.784;9.336;2024-02-21T11:43:55;12.40;63.50
37786;DHT22;23625;48.784;9.336;2024-02-21T11:46:21;12.50;63.60
37786;DHT22;23625;48.784;9.336;2024-02-21T11:48:47;12.60;63.40
37786;DHT22;23625;48.784;9.336;2024-02-21T11:51:25;12.50;62.90
37786;DHT22;23625;48.784;9.336;2024-02-21T11:53:52;12.70;63.10
37786;DHT22;23625;48.784;9.336;2024-02-21T11:56:18;12.70;63.40
37786;DHT22;23625;48.784;9.336;2024-02-21T11:58:46;12.80;64.80
37786;DHT22;23625;48.784;9.336;2024-02-21T12:01:12;12.80;63.40
37786;DHT22;23625;48.784;9.336;2024-02-21T12:03:37;12.70;62.80
37786;DHT22;23625;48.784;9.336;2024-02-21T12:06:03;12.70;62.70
37786;DHT22;23625;48.784;9.336;2024-02-21T12:08:41;12.60;63.20
37786;DHT22;23625;48.784;9.336;2024-02-21T12:11:21;12.70;62.70
37786;DHT22;23625;48.784;9.336;2024-02-21T12:13:57;12.80;61.30
37786;DHT22;23625;48.784;9.336;2024-02-21T12:16:24;12.70;61.20
37786;DHT22;23625;48.784;9.336;2024-02-21T12:18:53;12.60;61.10
37786;DHT22;23625;48.784;9.336;2024-02-21T12:21:18;12.70;61.40
37786;DHT22;23625;48.784;9.336;2024-02-21T12:23:44;12.70;61.60
37786;DHT22;23625;48.784;9.336;2024-02-21T12:26:12;12.70;62.10
37786;DHT22;23625;48.784;9.336;2024-02-21T12:28:37;12.80;61.60
37786;DHT22;23625;48.784;9.336;2024-02-21T12:31:03;12.70;60.50
37786;DHT22;23625;48.784;9.336;2024-02-21T12:33:30;12.70;59.90
37786;DHT22;23625;48.784;9.336;2024-02-21T12:35:55;12.70;59.40
37786;DHT22;23625;48.784;9.336;2024-02-21T12:38:21;12.80;58.30
37786;DHT22;23625;48.784;9.336;2024-02-21T12:40:47;12.90;58.40
37786;DHT22;23625;48.784;9.336;2024-02-21T12:43:13;12.90;59.80
37786;DHT22;23625;48.784;9.336;2024-02-21T12:45:38;13.10;59.10
37786;DHT22;23625;48.784;9.336;2024-02-21T12:48:04;13.20;60.10
37786;DHT22;23625;48.784;9.336;2024-02-21T12:50:30;13.20;60.40
37786;DHT22;23625;48.784;9.336;2024-02-21T12:52:57;13.10;58.20
37786;DHT22;23625;48.784;9.336;2024-02-21T12:55:23;13.20;59.30
37786;DHT22;23625;48.784;9.336;2024-02-21T12:57:49;13.20;57.30
37786;DHT22;23625;48.784;9.336;2024-02-21T13:00:15;13.30;58.10
37786;DHT22;23625;48.784;9.336;2024-02-21T13:02:41;13.30;57.30
37786;DHT22;23625;48.784;9.336;2024-02-21T13:05:06;13.40;57.50
37786;DHT22;23625;48.784;9.336;2024-02-21T13:07:33;13.50;57.10
37786;DHT22;23625;48.784;9.336;2024-02-21T13:09:58;13.50;56.00
37786;DHT22;23625;48.784;9.336;2024-02-21T13:12:25;13.40;56.00
37786;DHT22;23625;48.784;9.336;2024-02-21T13:14:51;13.40;56.10
37786;DHT22;23625;48.784;9.336;2024-02-21T13:17:17;13.40;54.90
37786;DHT22;23625;48.784;9.336;2024-02-21T13:19:43;13.60;54.80
37786;DHT22;23625;48.784;9.336;2024-02-21T13:22:09;13.60;55.60
37786;DHT22;23625;48.784;9.336;2024-02-21T13:24:34;13.50;54.10
37786;DHT22;23625;48.784;9.336;2024-02-21T13:27:00;13.50;54.50
37786;DHT22;23625;48.784;9.336;2024-02-21T13:29:25;13.60;54.00
37786;DHT22;23625;48.784;9.336;2024-02-21T13:31:52;13.50;53.70
37786;DHT22;23625;48.784;9.336;2024-02-21T13:34:17;13.60;54.50
37786;DHT22;23625;48.784;9.336;2024-02-21T13:36:43;13.60;53.60
37786;DHT22;23625;48.784;9.336;2024-02-21T13:39:08;13.60;52.60
37786;DHT22;23625;48.784;9.336;2024-02-21T13:41:38;13.60;52.20
37786;DHT22;23625;48.784;9.336;2024-02-21T13:44:03;13.60;51.90
37786;DHT22;23625;48.784;9.336;2024-02-21T13:46:29;13.60;51.60
37786;DHT22;23625;48.784;9.336;2024-02-21T13:49:03;13.50;51.40
37786;DHT22;23625;48.784;9.336;2024-02-21T13:51:33;13.60;51.60
37786;DHT22;23625;48.784;9.336;2024-02-21T13:53:59;13.60;52.00
37786;DHT22;23625;48.784;9.336;2024-02-21T13:56:25;13.70;52.10
37786;DHT22;23625;48.784;9.336;2024-02-21T13:58:51;13.70;51.30
37786;DHT22;23625;48.784;9.336;2024-02-21T14:01:16;13.60;51.60
37786;DHT22;23625;48.784;9.336;2024-02-21T14:03:42;13.50;51.70
37786;DHT22;23625;48.784;9.336;2024-02-21T14:06:07;13.60;52.10
37786;DHT22;23625;48.784;9.336;2024-02-21T14:08:33;13.50;52.00
37786;DHT22;23625;48.784;9.336;2024-02-21T14:10:59;13.50;52.20
37786;DHT22;23625;48.784;9.336;2024-02-21T14:13:25;13.50;51.20
37786;DHT22;23625;48.784;9.336;2024-02-21T14:15:51;13.70;51.10
37786;DHT22;23625;48.784;9.336;2024-02-21T14:18:17;13.50;50.90
37786;DHT22;23625;48.784;9.336;2024-02-21T14:20:43;13.50;50.50
37786;DHT22;23625;48.784;9.336;2024-02-21T14:23:08;13.50;50.10
37786;DHT22;23625;48.784;9.336;2024-02-21T14:25:34;13.50;51.40
37786;DHT22;23625;48.784;9.336;2024-02-21T14:28:00;13.50;51.40
37786;DHT22;23625;48.784;9.336;2024-02-21T14:30:28;13.60;50.30
37786;DHT22;23625;48.784;9.336;2024-02-21T14:32:54;13.50;51.20
37786;DHT22;23625;48.784;9.336;2024-02-21T14:35:20;13.50;51.20
37786;DHT22;23625;48.784;9.336;2024-02-21T14:37:46;13.40;50.60
37786;DHT22;23625;48.784;9.336;2024-02-21T14:40:14;13.40;51.20
37786;DHT22;23625;48.784;9.336;2024-02-21T14:42:39;13.50;51.10
37786;DHT22;23625;48.784;9.336;2024-02-21T14:45:05;13.50;51.90
37786;DHT22;23625;48.784;9.336;2024-02-21T14:47:32;13.50;52.70
37786;DHT22;23625;48.784;9.336;2024-02-21T14:49:58;13.50;53.10
37786;DHT22;23625;48.784;9.336;2024-02-21T14:52:24;13.60;53.60
37786;DHT22;23625;48.784;9.336;2024-02-21T14:54:50;13.50;53.00
37786;DHT22;23625;48.784;9.336;2024-02-21T14:57:19;13.60;53.10
37786;DHT22;23625;48.784;9.336;2024-02-21T14:59:46;13.60;53.60
37786;DHT22;23625;48.784;9.336;2024-02-21T15:02:11;13.50;53.80
37786;DHT22;23625;48.784;9.336;2024-02-21T15:04:37;13.50;53.80
37786;DHT22;23625;48.784;9.336;2024-02-21T15:07:02;13.60;54.40
37786;DHT22;23625;48.784;9.336;2024-02-21T15:09:28;13.50;54.30
37786;DHT22;23625;48.784;9.336;2024-02-21T15:11:54;13.40;54.20
37786;DHT22;23625;48.784;9.336;2024-02-21T15:14:19;13.50;54.50
37786;DHT22;23625;48.784;9.336;2024-02-21T15:16:45;13.40;55.00
37786;DHT22;23625;48.784;9.336;2024-02-21T15:19:11;13.40;55.70
37786;DHT22;23625;48.784;9.336;2024-02-21T15:21:37;13.40;56.60
37786;DHT22;23625;48.784;9.336;2024-02-21T15:24:02;13.30;56.00
37786;DHT22;23625;48.784;9.336;2024-02-21T15:26:29;13.30;56.80
37786;DHT22;23625;48.784;9.336;2024-02-21T15:28:55;13.30;57.60
37786;DHT22;23625;48.784;9.336;2024-02-21T15:31:22;13.20;58.20
37786;DHT22;23625;48.784;9.336;2024-02-21T15:33:51;13.30;59.00
37786;DHT22;23625;48.784;9.336;2024-02-21T15:36:17;13.20;58.70
37786;DHT22;23625;48.784;9.336;2024-02-21T15:38:46;13.10;58.70
37786;DHT22;23625;48.784;9.336;2024-02-21T15:41:12;13.10;59.30
37786;DHT22;23625;48.784;9.336;2024-02-21T15:43:40;13.00;60.00